createdAt,value
2022-10-07T00:01:30.875Z,8.50
2022-10-07T00:05:34.950Z,8.40
2022-10-07T00:10:09.033Z,8.30
2022-10-07T00:14:13.486Z,8.30
2022-10-07T00:18:16.711Z,8.30
2022-10-07T00:22:54.475Z,8.30
2022-10-07T00:26:57.581Z,8.30
2022-10-07T00:31:36.486Z,8.30
2022-10-07T00:35:39.618Z,8.30
2022-10-07T00:39:42.801Z,8.30
2022-10-07T00:43:46.016Z,8.30
2022-10-07T00:47:52.040Z,8.30
2022-10-07T00:51:55.391Z,8.40
2022-10-07T00:56:29.910Z,8.50
2022-10-07T01:00:33.878Z,8.60
2022-10-07T01:04:38.678Z,8.60
2022-10-07T01:08:48.515Z,8.60
2022-10-07T01:13:05.619Z,8.50
2022-10-07T01:17:28.993Z,8.40
2022-10-07T01:21:40.667Z,8.40
2022-10-07T01:26:26.551Z,8.30
2022-10-07T01:30:35.876Z,8.30
2022-10-07T01:34:41.526Z,8.30
2022-10-07T01:39:17.744Z,8.20
2022-10-07T01:43:23.277Z,8.20
2022-10-07T01:48:00.250Z,8.20
2022-10-07T01:52:24.777Z,8.10
2022-10-07T01:56:43.826Z,8.10
2022-10-07T02:01:09.517Z,8.10
2022-10-07T02:05:21.611Z,8.10
2022-10-07T02:09:52.700Z,8.00
2022-10-07T02:14:01.469Z,8.00
2022-10-07T02:18:34.335Z,8.00
2022-10-07T02:22:41.192Z,8.10
2022-10-07T02:27:13.908Z,8.10
2022-10-07T02:31:19.383Z,8.10
2022-10-07T02:35:54.911Z,8.00
2022-10-07T02:40:01.094Z,7.90
2022-10-07T02:44:38.858Z,7.80
2022-10-07T02:48:47.484Z,7.80
2022-10-07T02:52:52.542Z,7.70
2022-10-07T02:57:26.561Z,7.70
2022-10-07T03:01:45.458Z,7.70
2022-10-07T03:06:07.242Z,7.70
2022-10-07T03:10:10.829Z,7.70
2022-10-07T03:14:50.061Z,7.60
2022-10-07T03:19:01.930Z,7.60
2022-10-07T03:23:33.290Z,7.50
2022-10-07T03:27:36.536Z,7.50
2022-10-07T03:32:14.883Z,7.50
2022-10-07T03:36:19.393Z,7.50
2022-10-07T03:40:52.926Z,7.40
2022-10-07T03:44:56.017Z,7.40
2022-10-07T03:49:02.453Z,7.30
2022-10-07T03:53:38.690Z,7.20
2022-10-07T03:58:13.348Z,7.20
2022-10-07T04:02:47.611Z,7.10
2022-10-07T04:07:24.717Z,7.00
2022-10-07T04:12:03.821Z,6.90
2022-10-07T04:16:39.735Z,6.80
2022-10-07T04:21:13.498Z,6.90
2022-10-07T04:25:50.576Z,6.90
2022-10-07T04:30:29.660Z,6.90
2022-10-07T04:35:05.329Z,6.90
2022-10-07T04:39:59.725Z,6.90
2022-10-07T04:44:15.138Z,6.90
2022-10-07T04:48:51.182Z,6.90
2022-10-07T04:53:24.950Z,6.80
2022-10-07T04:58:01.511Z,6.80
2022-10-07T05:02:38.443Z,6.90
2022-10-07T05:07:18.460Z,6.90
2022-10-07T05:11:55.699Z,6.90
2022-10-07T05:16:00.294Z,6.90
2022-10-07T05:20:04.831Z,7.00
2022-10-07T05:29:25.221Z,7.00
2022-10-07T05:33:59.241Z,7.00
2022-10-07T05:38:36.930Z,7.00
2022-10-07T05:43:14.006Z,7.10
2022-10-07T05:48:00.713Z,7.10
2022-10-07T05:52:40.044Z,7.20
2022-10-07T05:57:13.768Z,7.20
2022-10-07T06:01:50.758Z,7.30
2022-10-07T06:06:27.435Z,7.50
2022-10-07T06:11:23.479Z,7.70
2022-10-07T06:15:41.911Z,8.00
2022-10-07T06:20:19.064Z,8.20
2022-10-07T06:29:39.289Z,8.70
2022-10-07T06:34:13.117Z,9.00
2022-10-07T06:38:50.597Z,9.20
2022-10-07T06:43:24.953Z,9.30
2022-10-07T06:47:40.763Z,9.50
2022-10-07T06:52:14.861Z,9.70
2022-10-07T06:56:51.849Z,9.90
2022-10-07T07:01:28.987Z,10.00
2022-10-07T07:06:07.930Z,10.20
2022-10-07T07:10:42.981Z,10.50
2022-10-07T07:14:46.144Z,10.80
2022-10-07T07:19:22.898Z,11.00
2022-10-07T07:28:43.039Z,11.60
2022-10-07T07:33:17.148Z,11.80
2022-10-07T07:37:54.551Z,11.90
2022-10-07T07:42:31.608Z,12.30
2022-10-07T07:47:10.353Z,12.70
2022-10-07T07:51:44.333Z,13.20
2022-10-07T07:56:21.438Z,13.50
2022-10-07T08:00:28.377Z,13.60
2022-10-07T08:05:04.449Z,13.70
2022-10-07T08:09:38.336Z,13.80
2022-10-07T08:14:16.188Z,14.10
2022-10-07T08:18:54.383Z,14.40
2022-10-07T08:22:59.885Z,14.60
2022-10-07T08:27:33.729Z,14.60
2022-10-07T08:32:10.860Z,14.60
2022-10-07T08:36:49.278Z,14.80
2022-10-07T08:41:33.034Z,15.10
2022-10-07T08:46:06.041Z,15.30
2022-10-07T08:50:43.770Z,15.60
2022-10-07T08:55:15.034Z,15.80
2022-10-07T08:59:56.160Z,15.90
2022-10-07T09:04:33.160Z,16.10
2022-10-07T09:09:06.100Z,16.50
2022-10-07T09:13:42.966Z,16.80
2022-10-07T09:18:21.503Z,17.40
2022-10-07T09:22:59.004Z,17.90
2022-10-07T09:32:19.943Z,18.80
2022-10-07T09:36:54.005Z,19.00
2022-10-07T09:41:35.482Z,19.40
2022-10-07T09:46:07.498Z,19.90
2022-10-07T09:50:41.248Z,20.40
2022-10-07T09:55:21.677Z,20.60
2022-10-07T09:59:27.774Z,20.60
2022-10-07T10:04:01.979Z,20.50
2022-10-07T10:08:38.462Z,20.60
2022-10-07T10:13:24.688Z,20.90
2022-10-07T10:17:54.874Z,21.50
2022-10-07T10:22:28.497Z,22.00
2022-10-07T10:27:07.820Z,22.40
2022-10-07T10:31:22.433Z,22.90
2022-10-07T10:35:55.408Z,23.50
2022-10-07T10:40:27.491Z,23.50
2022-10-07T10:45:08.223Z,23.20
2022-10-07T10:49:38.772Z,23.10
2022-10-07T10:54:11.963Z,23.40
2022-10-07T10:58:28.003Z,23.80
2022-10-07T11:02:59.392Z,24.10
2022-10-07T11:07:38.893Z,24.30
2022-10-07T11:11:44.863Z,24.60
2022-10-07T11:15:51.698Z,24.20
2022-10-07T11:19:59.084Z,23.90
2022-10-07T11:24:10.327Z,24.00
2022-10-07T11:28:20.475Z,24.10
2022-10-07T11:32:50.958Z,24.10
2022-10-07T11:37:03.052Z,24.10
2022-10-07T11:41:33.362Z,24.00
2022-10-07T11:46:11.886Z,23.90
2022-10-07T11:50:20.426Z,23.80
2022-10-07T11:54:59.556Z,23.60
2022-10-07T11:59:40.100Z,23.80
2022-10-07T12:04:24.820Z,23.80
2022-10-07T12:08:53.214Z,23.80
2022-10-07T12:13:37.171Z,23.80
2022-10-07T12:18:10.638Z,24.00
2022-10-07T12:22:44.771Z,24.30
2022-10-07T12:27:25.090Z,24.40
2022-10-07T12:36:44.242Z,23.60
2022-10-07T12:41:26.941Z,24.00
2022-10-07T12:46:03.156Z,23.90
2022-10-07T12:50:38.657Z,23.90
2022-10-07T12:55:16.162Z,23.60
2022-10-07T12:59:58.298Z,23.50
2022-10-07T13:04:37.586Z,23.50
2022-10-07T13:09:20.362Z,23.30
2022-10-07T13:13:48.457Z,23.00
2022-10-07T13:18:18.602Z,23.30
2022-10-07T13:22:55.251Z,23.40
2022-10-07T13:27:30.381Z,23.40
2022-10-07T13:31:34.763Z,23.50
2022-10-07T13:35:39.856Z,23.40
2022-10-07T13:40:23.109Z,23.00
2022-10-07T13:45:01.326Z,22.90
2022-10-07T13:49:36.308Z,23.00
2022-10-07T13:54:08.686Z,23.00
2022-10-07T13:58:45.031Z,22.90
2022-10-07T14:02:50.842Z,22.70
2022-10-07T14:07:22.963Z,22.60
2022-10-07T14:11:26.012Z,22.50
2022-10-07T14:16:02.784Z,22.40
2022-10-07T14:20:19.116Z,22.10
2022-10-07T14:24:22.443Z,22.10
2022-10-07T14:28:30.750Z,22.30
2022-10-07T14:32:51.283Z,22.50
2022-10-07T14:37:08.298Z,22.70
2022-10-07T14:41:12.377Z,22.90
2022-10-07T14:45:20.594Z,23.10
2022-10-07T14:49:54.194Z,23.10
2022-10-07T14:54:06.133Z,23.10
2022-10-07T14:58:10.263Z,23.20
2022-10-07T15:02:14.511Z,23.00
2022-10-07T15:06:51.406Z,22.80
2022-10-07T15:11:30.274Z,22.80
2022-10-07T15:16:04.334Z,22.60
2022-10-07T15:20:41.946Z,22.40
2022-10-07T15:25:19.433Z,22.20
2022-10-07T15:29:55.495Z,21.90
2022-10-07T15:34:29.281Z,21.50
2022-10-07T15:39:06.440Z,21.20
2022-10-07T15:43:43.574Z,20.90
2022-10-07T15:48:23.194Z,20.70
2022-10-07T15:52:57.361Z,20.30
2022-10-07T15:57:00.442Z,20.00
2022-10-07T16:01:37.604Z,19.80
2022-10-07T16:05:42.212Z,19.50
2022-10-07T16:10:02.105Z,19.10
2022-10-07T16:14:05.320Z,18.80
2022-10-07T16:18:08.529Z,18.40
2022-10-07T16:22:47.179Z,18.10
2022-10-07T16:26:51.580Z,17.80
2022-10-07T16:31:25.807Z,17.40
2022-10-07T16:35:31.458Z,17.00
2022-10-07T16:39:36.291Z,16.80
2022-10-07T16:43:39.747Z,16.50
2022-10-07T16:47:43.204Z,16.30
2022-10-07T16:51:47.144Z,16.10
2022-10-07T16:56:23.427Z,15.70
2022-10-07T17:00:26.427Z,15.60
2022-10-07T17:05:03.241Z,15.50
2022-10-07T17:09:06.399Z,15.30
2022-10-07T17:13:10.878Z,15.00
2022-10-07T17:17:44.884Z,14.80
2022-10-07T17:21:49.042Z,14.60
2022-10-07T17:25:52.012Z,14.30
2022-10-07T17:30:31.552Z,14.20
2022-10-07T17:34:34.707Z,14.00
2022-10-07T17:38:39.314Z,13.90
2022-10-07T17:43:13.306Z,13.80
2022-10-07T17:47:17.798Z,13.70
2022-10-07T17:51:22.109Z,13.50
2022-10-07T17:55:25.286Z,13.40
2022-10-07T18:00:05.247Z,13.30
2022-10-07T18:04:38.977Z,13.10
2022-10-07T18:09:19.351Z,13.00
2022-10-07T18:14:10.321Z,12.90
2022-10-07T18:18:30.081Z,12.80
2022-10-07T18:23:04.075Z,12.70
2022-10-07T18:27:45.591Z,12.60
2022-10-07T18:32:23.321Z,12.60
2022-10-07T18:36:57.482Z,12.50
2022-10-07T18:41:34.524Z,12.40
2022-10-07T18:46:14.258Z,12.40
2022-10-07T18:50:51.735Z,12.40
2022-10-07T18:55:28.553Z,12.40
2022-10-07T19:00:05.908Z,12.30
2022-10-07T19:04:44.375Z,12.20
2022-10-07T19:09:19.114Z,12.20
2022-10-07T19:13:56.251Z,12.10
2022-10-07T19:18:29.986Z,12.00
2022-10-07T19:23:10.325Z,11.90
2022-10-07T19:27:44.442Z,11.90
2022-10-07T19:32:21.577Z,11.80
2022-10-07T19:36:59.428Z,11.80
2022-10-07T19:41:07.567Z,11.80
2022-10-07T19:45:11.574Z,11.80
2022-10-07T19:49:14.766Z,11.70
2022-10-07T19:53:51.745Z,11.70
2022-10-07T19:58:28.695Z,11.70
2022-10-07T20:03:05.285Z,11.60
2022-10-07T20:07:09.954Z,11.60
2022-10-07T20:11:44.306Z,11.60
2022-10-07T20:15:47.432Z,11.60
2022-10-07T20:20:24.527Z,11.60
2022-10-07T20:25:01.393Z,11.50
2022-10-07T20:29:57.191Z,11.50
2022-10-07T20:34:01.725Z,11.50
2022-10-07T20:38:04.919Z,11.50
2022-10-07T20:42:44.640Z,11.40
2022-10-07T20:47:19.535Z,11.30
2022-10-07T20:51:57.652Z,11.30
2022-10-07T20:56:32.452Z,11.20
2022-10-07T21:01:07.226Z,11.20
2022-10-07T21:05:45.606Z,11.20
2022-10-07T21:10:19.194Z,11.20
2022-10-07T21:14:22.721Z,11.10
2022-10-07T21:18:26.730Z,11.10
2022-10-07T21:23:02.658Z,11.20
2022-10-07T21:27:07.742Z,11.30
2022-10-07T21:31:17.681Z,11.40
2022-10-07T21:35:20.893Z,11.50
2022-10-07T21:39:26.513Z,11.50
2022-10-07T21:43:29.532Z,11.60
2022-10-07T21:47:32.742Z,11.50
2022-10-07T21:52:09.502Z,11.60
2022-10-07T21:56:14.363Z,11.50
2022-10-07T22:00:48.760Z,11.40
2022-10-07T22:04:51.913Z,11.30
2022-10-07T22:08:56.389Z,11.20
2022-10-07T22:13:33.246Z,11.10
2022-10-07T22:17:36.497Z,11.00
2022-10-07T22:22:13.718Z,10.90
2022-10-07T22:26:16.744Z,10.70
2022-10-07T22:30:55.070Z,10.60
2022-10-07T22:35:21.137Z,10.50
2022-10-07T22:39:24.279Z,10.40
2022-10-07T22:43:27.296Z,10.30
2022-10-07T22:47:31.819Z,10.40
2022-10-07T22:51:34.945Z,10.40
2022-10-07T22:56:12.564Z,10.40
2022-10-07T23:00:16.608Z,10.40
2022-10-07T23:04:51.895Z,10.40
2022-10-07T23:08:55.144Z,10.50
2022-10-07T23:13:31.807Z,10.50
2022-10-07T23:17:34.992Z,10.50
2022-10-07T23:21:39.688Z,10.50
2022-10-07T23:25:43.358Z,10.50
2022-10-07T23:29:46.503Z,10.60
2022-10-07T23:34:23.342Z,10.70
2022-10-07T23:38:28.679Z,10.80
2022-10-07T23:42:31.698Z,10.80
2022-10-07T23:46:36.574Z,10.80
2022-10-07T23:51:12.168Z,10.80
2022-10-07T23:55:16.785Z,10.80
2022-10-07T23:59:50.407Z,10.80
